createdAt,value
2018-05-12T00:01:03.753Z,57.01
2018-05-12T00:03:29.734Z,56.97
2018-05-12T00:05:55.782Z,57.04
2018-05-12T00:08:21.682Z,56.83
2018-05-12T00:10:47.663Z,56.96
2018-05-12T00:13:13.631Z,56.88
2018-05-12T00:15:39.596Z,56.89
2018-05-12T00:18:05.589Z,57.02
2018-05-12T00:20:31.575Z,56.57
2018-05-12T00:22:57.532Z,56.59
2018-05-12T00:25:23.503Z,56.88
2018-05-12T00:27:49.457Z,57.05
2018-05-12T00:30:15.444Z,57.05
2018-05-12T00:32:41.393Z,57.13
2018-05-12T00:35:07.352Z,57.05
2018-05-12T00:37:33.367Z,57.11
2018-05-12T00:39:59.315Z,56.98
2018-05-12T00:42:30.951Z,57.05
2018-05-12T00:44:56.920Z,57.18
2018-05-12T00:47:22.900Z,57.12
2018-05-12T00:49:48.890Z,57.07
2018-05-12T00:52:14.838Z,56.80
2018-05-12T00:54:40.796Z,57.29
2018-05-12T00:57:06.792Z,57.33
2018-05-12T00:59:32.763Z,57.04
2018-05-12T01:01:58.720Z,56.78
2018-05-12T01:04:24.675Z,56.99
2018-05-12T01:06:50.643Z,57.13
2018-05-12T01:09:16.648Z,57.33
2018-05-12T01:11:42.612Z,57.31
2018-05-12T01:14:08.586Z,56.85
2018-05-12T01:16:34.542Z,57.28
2018-05-12T01:19:00.518Z,57.11
2018-05-12T01:21:29.566Z,57.01
2018-05-12T01:23:55.520Z,57.44
2018-05-12T01:26:21.490Z,56.86
2018-05-12T01:28:47.471Z,57.46
2018-05-12T01:31:13.419Z,57.25
2018-05-12T01:33:39.410Z,57.32
2018-05-12T01:36:05.381Z,57.00
2018-05-12T01:38:31.333Z,57.49
2018-05-12T01:40:57.293Z,57.47
2018-05-12T01:43:23.257Z,57.11
2018-05-12T01:45:49.207Z,57.14
2018-05-12T01:48:15.180Z,56.69
2018-05-12T01:50:41.127Z,56.81
2018-05-12T01:53:07.120Z,57.19
2018-05-12T01:55:33.090Z,57.04
2018-05-12T01:57:59.045Z,57.43
2018-05-12T02:00:25.020Z,57.06
2018-05-12T02:02:51.000Z,57.20
2018-05-12T02:05:16.967Z,57.41
2018-05-12T02:07:42.931Z,57.64
2018-05-12T02:10:08.922Z,57.34
2018-05-12T02:12:34.884Z,57.05
2018-05-12T02:15:00.824Z,57.47
2018-05-12T02:17:26.797Z,57.18
2018-05-12T02:19:52.782Z,57.66
2018-05-12T02:22:18.745Z,57.51
2018-05-12T02:24:44.705Z,57.15
2018-05-12T02:27:10.654Z,56.97
2018-05-12T02:29:36.609Z,57.37
2018-05-12T02:32:02.586Z,57.29
2018-05-12T02:34:28.538Z,57.30
2018-05-12T02:36:54.511Z,57.22
2018-05-12T02:39:20.487Z,57.25
2018-05-12T02:41:46.501Z,57.36
2018-05-12T02:44:12.465Z,57.26
2018-05-12T02:46:38.446Z,57.25
2018-05-12T02:49:04.434Z,57.12
2018-05-12T02:51:30.405Z,57.17
2018-05-12T02:53:56.376Z,57.22
2018-05-12T02:56:22.370Z,56.98
2018-05-12T02:58:48.348Z,57.63
2018-05-12T03:01:14.298Z,57.38
2018-05-12T03:03:40.379Z,57.42
2018-05-12T03:06:06.329Z,57.56
2018-05-12T03:08:32.295Z,57.60
2018-05-12T03:10:58.265Z,57.75
2018-05-12T03:13:24.247Z,56.90
2018-05-12T03:15:50.215Z,57.26
2018-05-12T03:18:16.168Z,56.85
2018-05-12T03:20:42.120Z,56.95
2018-05-12T03:23:08.116Z,57.32
2018-05-12T03:25:34.102Z,57.11
2018-05-12T03:28:00.065Z,57.08
2018-05-12T03:30:26.045Z,57.29
2018-05-12T03:32:52.017Z,57.33
2018-05-12T03:35:17.999Z,57.03
2018-05-12T03:37:43.971Z,57.29
2018-05-12T03:40:09.937Z,56.99
2018-05-12T03:42:35.901Z,56.79
2018-05-12T03:45:01.866Z,57.11
2018-05-12T03:47:27.843Z,57.25
2018-05-12T03:49:53.819Z,57.27
2018-05-12T03:52:19.818Z,57.43
2018-05-12T03:54:45.810Z,57.33
2018-05-12T03:57:11.763Z,57.32
2018-05-12T03:59:37.714Z,57.17
2018-05-12T04:02:03.676Z,57.46
2018-05-12T04:04:29.627Z,57.24
2018-05-12T04:06:55.584Z,57.34
2018-05-12T04:09:21.551Z,57.42
2018-05-12T04:11:47.537Z,56.76
2018-05-12T04:14:13.491Z,57.20
2018-05-12T04:16:39.497Z,57.37
2018-05-12T04:19:05.467Z,57.18
2018-05-12T04:21:31.451Z,56.73
2018-05-12T04:23:57.428Z,56.91
2018-05-12T04:26:23.389Z,57.00
2018-05-12T04:28:49.350Z,57.34
2018-05-12T04:31:15.310Z,57.18
2018-05-12T04:33:41.281Z,56.71
2018-05-12T04:36:07.261Z,56.68
2018-05-12T04:38:33.201Z,57.18
2018-05-12T04:40:59.181Z,57.60
2018-05-12T04:43:25.147Z,57.48
2018-05-12T04:45:51.112Z,56.99
2018-05-12T04:48:17.088Z,57.49
2018-05-12T04:50:43.075Z,57.19
2018-05-12T04:53:09.038Z,57.27
2018-05-12T04:55:34.996Z,57.27
2018-05-12T04:58:00.953Z,57.43
2018-05-12T05:00:26.904Z,57.23
2018-05-12T05:02:52.898Z,57.18
2018-05-12T05:05:18.870Z,57.46
2018-05-12T05:07:44.812Z,57.23
2018-05-12T05:10:10.797Z,57.45
2018-05-12T05:12:36.768Z,57.21
2018-05-12T05:15:02.743Z,57.35
2018-05-12T05:17:28.707Z,57.33
2018-05-12T05:19:54.675Z,57.35
2018-05-12T05:22:20.643Z,56.87
2018-05-12T05:24:46.671Z,57.23
2018-05-12T05:27:13.714Z,57.31
2018-05-12T05:29:39.677Z,57.38
2018-05-12T05:32:05.766Z,57.34
2018-05-12T05:34:31.730Z,57.63
2018-05-12T05:36:57.717Z,57.30
2018-05-12T05:39:23.675Z,57.29
2018-05-12T05:41:49.661Z,57.48
2018-05-12T05:44:15.616Z,57.58
2018-05-12T05:46:41.668Z,57.44
2018-05-12T05:49:07.677Z,57.13
2018-05-12T05:51:33.669Z,57.44
2018-05-12T05:54:00.658Z,57.51
2018-05-12T05:56:26.635Z,57.39
2018-05-12T05:58:52.619Z,57.29
2018-05-12T06:01:18.581Z,57.25
2018-05-12T06:03:44.533Z,56.93
2018-05-12T06:06:10.498Z,57.26
2018-05-12T06:08:36.465Z,57.96
2018-05-12T06:11:02.406Z,57.01
2018-05-12T06:13:28.366Z,56.69
2018-05-12T06:15:54.348Z,57.19
2018-05-12T06:18:20.308Z,56.94
2018-05-12T06:20:46.272Z,56.81
2018-05-12T06:23:12.288Z,57.56
2018-05-12T06:25:38.342Z,57.05
2018-05-12T06:28:06.398Z,57.32
2018-05-12T06:30:32.355Z,57.51
2018-05-12T06:32:59.361Z,57.30
2018-05-12T06:35:25.388Z,57.11
2018-05-12T06:37:51.398Z,57.33
2018-05-12T06:40:17.344Z,57.41
2018-05-12T06:42:43.489Z,56.45
2018-05-12T06:45:09.477Z,55.99
2018-05-12T06:47:35.449Z,56.62
2018-05-12T06:50:01.457Z,55.92
2018-05-12T06:52:27.470Z,57.31
2018-05-12T06:54:53.450Z,57.03
2018-05-12T06:57:19.424Z,57.08
2018-05-12T06:59:45.401Z,57.09
2018-05-12T07:02:12.468Z,54.98
2018-05-12T07:04:38.488Z,54.50
2018-05-12T07:07:04.531Z,54.02
2018-05-12T07:09:30.500Z,53.32
2018-05-12T07:11:56.463Z,52.17
2018-05-12T07:14:22.451Z,52.32
2018-05-12T07:16:48.406Z,52.51
2018-05-12T07:19:14.403Z,54.17
2018-05-12T07:21:40.381Z,54.25
2018-05-12T07:24:06.357Z,55.10
2018-05-12T07:26:37.637Z,54.05
2018-05-12T07:29:03.602Z,54.25
2018-05-12T07:31:29.604Z,51.70
2018-05-12T07:33:55.597Z,52.13
2018-05-12T07:36:21.606Z,53.46
2018-05-12T07:38:47.597Z,52.36
2018-05-12T07:41:13.621Z,52.21
2018-05-12T07:43:39.609Z,52.24
2018-05-12T07:46:05.583Z,53.06
2018-05-12T07:48:34.892Z,52.39
2018-05-12T07:51:00.852Z,53.78
2018-05-12T07:53:26.925Z,54.37
2018-05-12T07:55:52.886Z,53.04
2018-05-12T07:58:18.859Z,54.23
2018-05-12T08:00:44.818Z,52.78
2018-05-12T08:03:10.785Z,53.44
2018-05-12T08:05:42.656Z,53.33
2018-05-12T08:08:08.626Z,53.40
2018-05-12T08:10:34.580Z,53.81
2018-05-12T08:13:00.583Z,53.89
2018-05-12T08:15:26.538Z,54.50
2018-05-12T08:17:52.505Z,54.88
2018-05-12T08:20:18.474Z,53.96
2018-05-12T08:22:45.526Z,53.92
2018-05-12T08:25:11.550Z,52.93
2018-05-12T08:27:37.510Z,53.83
2018-05-12T08:30:03.471Z,52.91
2018-05-12T08:32:29.502Z,53.25
2018-05-12T08:34:55.481Z,52.46
2018-05-12T08:37:21.470Z,53.50
2018-05-12T08:39:47.447Z,52.51
2018-05-12T08:42:13.416Z,53.69
2018-05-12T08:44:39.393Z,53.48
2018-05-12T08:47:05.361Z,54.78
2018-05-12T08:49:31.333Z,53.63
2018-05-12T08:51:57.311Z,55.66
2018-05-12T08:54:23.294Z,54.47
2018-05-12T08:56:49.256Z,54.74
2018-05-12T08:59:15.253Z,54.61
2018-05-12T09:01:41.209Z,55.22
2018-05-12T09:04:07.187Z,54.24
2018-05-12T09:06:33.129Z,55.07
2018-05-12T09:08:59.093Z,54.29
2018-05-12T09:11:25.041Z,55.03
2018-05-12T09:13:51.016Z,54.20
2018-05-12T09:16:16.974Z,54.19
2018-05-12T09:18:42.949Z,54.10
2018-05-12T09:21:08.903Z,54.09
2018-05-12T09:23:35.038Z,55.04
2018-05-12T09:26:01.022Z,55.45
2018-05-12T09:28:27.000Z,54.28
2018-05-12T09:30:52.982Z,53.77
2018-05-12T09:33:18.943Z,55.89
2018-05-12T09:35:44.929Z,55.95
2018-05-12T09:38:10.897Z,54.98
2018-05-12T09:40:36.876Z,55.32
2018-05-12T09:43:02.868Z,56.49
2018-05-12T09:45:28.845Z,56.02
2018-05-12T09:47:54.856Z,55.46
2018-05-12T09:50:20.832Z,55.80
2018-05-12T09:52:46.795Z,55.73
2018-05-12T09:55:12.740Z,54.98
2018-05-12T09:57:38.699Z,55.80
2018-05-12T10:00:04.653Z,55.84
2018-05-12T10:02:30.629Z,55.09
2018-05-12T10:04:56.602Z,54.98
2018-05-12T10:07:22.697Z,55.40
2018-05-12T10:09:48.693Z,56.20
2018-05-12T10:12:14.677Z,56.66
2018-05-12T10:14:40.655Z,55.86
2018-05-12T10:17:06.647Z,55.04
2018-05-12T10:19:32.615Z,56.47
2018-05-12T10:21:58.594Z,56.42
2018-05-12T10:24:24.614Z,54.88
2018-05-12T10:26:50.584Z,54.50
2018-05-12T10:29:16.571Z,56.42
2018-05-12T10:31:42.591Z,55.48
2018-05-12T10:34:08.555Z,56.19
2018-05-12T10:36:34.550Z,56.14
2018-05-12T10:39:01.517Z,56.61
2018-05-12T10:41:27.463Z,54.17
2018-05-12T10:43:53.457Z,56.02
2018-05-12T10:46:19.414Z,56.33
2018-05-12T10:48:45.372Z,55.42
2018-05-12T10:51:11.347Z,56.61
2018-05-12T10:53:37.304Z,54.36
2018-05-12T10:56:03.254Z,56.97
2018-05-12T10:58:29.231Z,55.93
2018-05-12T11:00:55.185Z,56.70
2018-05-12T11:03:21.179Z,55.82
2018-05-12T11:05:47.118Z,54.73
2018-05-12T11:08:13.093Z,56.78
2018-05-12T11:10:39.060Z,56.33
2018-05-12T11:13:05.002Z,56.56
2018-05-12T11:15:30.988Z,54.66
2018-05-12T11:17:56.941Z,55.96
2018-05-12T11:20:23.031Z,57.14
2018-05-12T11:22:48.917Z,56.25
2018-05-12T11:25:14.893Z,56.53
2018-05-12T11:27:40.872Z,56.81
2018-05-12T11:30:06.842Z,56.17
2018-05-12T11:32:32.832Z,55.18
2018-05-12T11:34:58.827Z,55.64
2018-05-12T11:37:25.778Z,56.75
2018-05-12T11:39:51.733Z,56.92
2018-05-12T11:42:17.739Z,56.50
2018-05-12T11:44:43.704Z,57.07
2018-05-12T11:47:09.669Z,55.07
2018-05-12T11:49:35.645Z,56.68
2018-05-12T11:52:01.719Z,55.21
2018-05-12T11:54:27.856Z,54.17
2018-05-12T11:56:53.853Z,55.36
2018-05-12T11:59:19.823Z,55.64
2018-05-12T12:01:45.807Z,54.95
2018-05-12T12:04:11.772Z,55.24
2018-05-12T12:06:37.724Z,55.10
2018-05-12T12:09:03.677Z,55.51
2018-05-12T12:11:29.750Z,55.57
2018-05-12T12:13:55.706Z,55.74
2018-05-12T12:16:21.692Z,56.33
2018-05-12T12:18:47.666Z,56.28
2018-05-12T12:21:13.624Z,55.45
2018-05-12T12:23:43.029Z,56.18
2018-05-12T12:26:09.005Z,55.74
2018-05-12T12:28:34.993Z,55.44
2018-05-12T12:31:00.961Z,55.43
2018-05-12T12:33:26.965Z,55.44
2018-05-12T12:35:52.919Z,56.09
2018-05-12T12:38:18.897Z,56.38
2018-05-12T12:40:44.868Z,56.36
2018-05-12T12:43:10.837Z,56.41
2018-05-12T12:45:36.842Z,55.45
2018-05-12T12:48:02.807Z,55.87
2018-05-12T12:50:28.764Z,56.00
2018-05-12T12:52:54.771Z,55.46
2018-05-12T12:55:20.738Z,56.17
2018-05-12T12:57:46.700Z,56.01
2018-05-12T13:00:12.650Z,56.76
2018-05-12T13:02:38.626Z,56.38
2018-05-12T13:05:04.609Z,56.27
2018-05-12T13:07:30.588Z,55.99
2018-05-12T13:09:56.568Z,56.66
2018-05-12T13:12:22.624Z,55.97
2018-05-12T13:14:48.583Z,56.51
2018-05-12T13:17:14.550Z,55.88
2018-05-12T13:19:40.557Z,56.79
2018-05-12T13:22:06.583Z,56.05
2018-05-12T13:24:32.536Z,56.40
2018-05-12T13:26:58.532Z,55.19
2018-05-12T13:29:24.489Z,56.58
2018-05-12T13:31:50.456Z,56.73
2018-05-12T13:34:16.446Z,55.05
2018-05-12T13:36:42.422Z,54.88
2018-05-12T13:39:08.390Z,57.02
2018-05-12T13:41:34.363Z,56.95
2018-05-12T13:44:00.354Z,56.74
2018-05-12T13:46:26.336Z,56.80
2018-05-12T13:48:52.321Z,56.64
2018-05-12T13:51:18.303Z,56.43
2018-05-12T13:53:44.334Z,56.62
2018-05-12T13:56:10.304Z,56.73
2018-05-12T13:58:36.309Z,56.84
2018-05-12T14:01:02.306Z,57.06
2018-05-12T14:03:28.274Z,56.78
2018-05-12T14:05:54.406Z,56.46
2018-05-12T14:08:20.385Z,56.57
2018-05-12T14:10:46.355Z,57.04
2018-05-12T14:13:12.362Z,57.31
2018-05-12T14:15:38.319Z,56.62
2018-05-12T14:18:04.315Z,55.58
2018-05-12T14:20:30.285Z,57.38
2018-05-12T14:22:56.276Z,56.05
2018-05-12T14:25:22.269Z,56.50
2018-05-12T14:27:48.253Z,57.59
2018-05-12T14:30:14.216Z,56.82
2018-05-12T14:32:40.198Z,56.99
2018-05-12T14:35:06.150Z,57.29
2018-05-12T14:37:32.229Z,56.93
2018-05-12T14:39:58.214Z,57.26
2018-05-12T14:42:24.168Z,55.65
2018-05-12T14:44:50.127Z,57.15
2018-05-12T14:47:16.106Z,56.96
2018-05-12T14:49:42.162Z,55.70
2018-05-12T14:52:08.070Z,57.00
2018-05-12T14:54:34.028Z,56.77
2018-05-12T14:56:59.990Z,57.15
2018-05-12T14:59:26.037Z,56.50
2018-05-12T15:01:52.081Z,57.43
2018-05-12T15:04:18.234Z,57.50
2018-05-12T15:06:44.215Z,57.47
2018-05-12T15:09:10.176Z,57.26
2018-05-12T15:11:36.169Z,56.97
2018-05-12T15:14:02.145Z,57.05
2018-05-12T15:16:28.097Z,57.33
2018-05-12T15:18:54.136Z,57.39
2018-05-12T15:21:20.127Z,57.13
2018-05-12T15:23:46.073Z,56.02
2018-05-12T15:26:12.036Z,57.22
2018-05-12T15:28:38.011Z,57.21
2018-05-12T15:31:03.968Z,57.17
2018-05-12T15:33:29.969Z,57.26
2018-05-12T15:35:55.912Z,57.58
2018-05-12T15:38:21.880Z,57.23
2018-05-12T15:40:47.859Z,57.17
2018-05-12T15:43:13.820Z,56.53
2018-05-12T15:45:39.813Z,57.29
2018-05-12T15:48:05.780Z,57.28
2018-05-12T15:50:31.751Z,57.66
2018-05-12T15:52:57.716Z,57.85
2018-05-12T15:55:23.676Z,57.06
2018-05-12T15:57:49.647Z,56.68
2018-05-12T16:00:15.636Z,56.65
2018-05-12T16:02:41.691Z,57.69
2018-05-12T16:05:07.682Z,57.29
2018-05-12T16:07:33.636Z,56.90
2018-05-12T16:09:59.626Z,57.04
2018-05-12T16:12:25.594Z,56.77
2018-05-12T16:14:51.545Z,57.11
2018-05-12T16:17:17.606Z,56.75
2018-05-12T16:19:43.588Z,57.64
2018-05-12T16:22:09.602Z,57.12
2018-05-12T16:24:35.568Z,57.18
2018-05-12T16:27:01.543Z,56.46
2018-05-12T16:29:27.506Z,57.75
2018-05-12T16:31:53.480Z,56.28
2018-05-12T16:34:21.540Z,57.18
2018-05-12T16:36:47.521Z,57.86
2018-05-12T16:39:13.482Z,57.78
2018-05-12T16:41:39.453Z,56.37
2018-05-12T16:44:05.436Z,57.19
2018-05-12T16:46:31.412Z,56.75
2018-05-12T16:48:57.449Z,56.93
2018-05-12T16:51:23.410Z,56.63
2018-05-12T16:53:49.414Z,57.80
2018-05-12T16:56:15.433Z,56.60
2018-05-12T16:58:41.396Z,56.67
2018-05-12T17:01:07.393Z,57.57
2018-05-12T17:03:33.381Z,57.24
2018-05-12T17:05:59.353Z,57.13
2018-05-12T17:08:25.339Z,56.96
2018-05-12T17:10:51.316Z,56.74
2018-05-12T17:13:17.376Z,57.75
2018-05-12T17:15:43.288Z,57.55
2018-05-12T17:18:09.264Z,56.50
2018-05-12T17:20:35.230Z,57.88
2018-05-12T17:23:01.190Z,57.08
2018-05-12T17:25:27.176Z,58.08
2018-05-12T17:27:53.167Z,57.46
2018-05-12T17:30:19.205Z,58.20
2018-05-12T17:32:45.174Z,58.21
2018-05-12T17:35:11.146Z,57.44
2018-05-12T17:37:37.108Z,57.97
2018-05-12T17:40:03.108Z,57.18
2018-05-12T17:42:29.076Z,57.81
2018-05-12T17:44:55.064Z,57.81
2018-05-12T17:47:21.041Z,57.61
2018-05-12T17:49:47.008Z,57.09
2018-05-12T17:52:12.961Z,58.02
2018-05-12T17:54:38.946Z,57.80
2018-05-12T17:57:04.912Z,56.54
2018-05-12T17:59:30.890Z,57.16
2018-05-12T18:01:56.892Z,57.46
2018-05-12T18:04:22.854Z,57.60
2018-05-12T18:06:48.827Z,57.64
2018-05-12T18:09:14.799Z,57.28
2018-05-12T18:11:40.754Z,57.91
2018-05-12T18:14:06.731Z,57.15
2018-05-12T18:16:32.696Z,57.70
2018-05-12T18:18:58.666Z,57.51
2018-05-12T18:21:24.662Z,57.92
2018-05-12T18:23:50.636Z,57.67
2018-05-12T18:26:16.611Z,57.73
2018-05-12T18:28:42.624Z,57.54
2018-05-12T18:31:08.600Z,57.85
2018-05-12T18:33:34.604Z,58.09
2018-05-12T18:36:00.593Z,57.41
2018-05-12T18:38:26.583Z,57.91
2018-05-12T18:40:52.578Z,57.37
2018-05-12T18:43:18.528Z,57.26
2018-05-12T18:45:44.517Z,58.01
2018-05-12T18:48:10.470Z,57.89
2018-05-12T18:50:36.531Z,57.95
2018-05-12T18:53:02.440Z,57.91
2018-05-12T18:55:28.493Z,57.96
2018-05-12T18:57:54.447Z,58.23
2018-05-12T19:00:20.467Z,58.36
2018-05-12T19:02:46.435Z,58.38
2018-05-12T19:05:12.400Z,58.33
2018-05-12T19:07:38.363Z,58.39
2018-05-12T19:10:04.327Z,58.44
2018-05-12T19:12:30.314Z,58.41
2018-05-12T19:14:56.281Z,58.22
2018-05-12T19:17:22.268Z,58.37
2018-05-12T19:19:48.251Z,58.32
2018-05-12T19:22:14.209Z,58.47
2018-05-12T19:24:40.176Z,58.47
2018-05-12T19:27:06.154Z,58.41
2018-05-12T19:29:32.118Z,58.43
2018-05-12T19:31:58.072Z,58.26
2018-05-12T19:34:24.073Z,58.35
2018-05-12T19:36:50.033Z,58.13
2018-05-12T19:39:15.997Z,58.47
2018-05-12T19:41:41.984Z,58.46
2018-05-12T19:44:07.941Z,58.43
2018-05-12T19:46:33.923Z,58.49
2018-05-12T19:48:59.906Z,58.63
2018-05-12T19:51:25.873Z,58.81
2018-05-12T19:53:51.869Z,58.80
2018-05-12T19:56:17.840Z,58.52
2018-05-12T19:58:43.828Z,58.76
2018-05-12T20:01:09.791Z,58.69
2018-05-12T20:03:35.745Z,58.60
2018-05-12T20:06:01.812Z,58.60
2018-05-12T20:08:31.456Z,58.33
2018-05-12T20:10:57.411Z,58.15
2018-05-12T20:13:23.365Z,57.82
2018-05-12T20:15:49.346Z,55.03
2018-05-12T20:18:15.307Z,57.44
2018-05-12T20:20:41.300Z,57.59
2018-05-12T20:23:07.276Z,56.78
2018-05-12T20:25:33.280Z,57.24
2018-05-12T20:27:59.250Z,57.39
2018-05-12T20:30:25.238Z,57.30
2018-05-12T20:32:51.216Z,56.72
2018-05-12T20:35:17.204Z,57.38
2018-05-12T20:37:43.255Z,57.49
2018-05-12T20:40:09.253Z,58.23
2018-05-12T20:42:35.264Z,57.82
2018-05-12T20:45:04.853Z,57.87
2018-05-12T20:47:34.141Z,57.75
2018-05-12T20:50:00.101Z,57.89
2018-05-12T20:52:27.108Z,58.08
2018-05-12T20:54:53.130Z,58.23
2018-05-12T20:57:19.121Z,58.10
2018-05-12T20:59:45.109Z,58.00
2018-05-12T21:02:11.070Z,57.85
2018-05-12T21:04:37.168Z,57.84
2018-05-12T21:07:04.358Z,57.88
2018-05-12T21:09:30.360Z,58.16
2018-05-12T21:11:56.374Z,57.92
2018-05-12T21:14:22.558Z,58.05
2018-05-12T21:16:48.446Z,57.97
2018-05-12T21:19:14.412Z,58.12
2018-05-12T21:21:40.369Z,57.95
2018-05-12T21:24:06.367Z,58.09
2018-05-12T21:26:32.386Z,58.26
2018-05-12T21:28:58.375Z,57.89
2018-05-12T21:31:24.364Z,58.08
2018-05-12T21:33:50.314Z,57.85
2018-05-12T21:36:16.277Z,58.05
2018-05-12T21:38:42.223Z,57.96
2018-05-12T21:41:08.435Z,57.93
2018-05-12T21:43:34.421Z,58.07
2018-05-12T21:46:00.418Z,57.89
2018-05-12T21:48:26.377Z,58.21
2018-05-12T21:50:52.428Z,58.21
2018-05-12T21:53:18.422Z,58.00
2018-05-12T21:55:44.388Z,57.91
2018-05-12T21:58:10.361Z,58.08
2018-05-12T22:00:36.312Z,57.87
2018-05-12T22:03:02.396Z,58.30
2018-05-12T22:05:28.462Z,58.23
2018-05-12T22:07:54.488Z,58.32
2018-05-12T22:10:20.408Z,58.42
2018-05-12T22:12:46.400Z,58.01
2018-05-12T22:15:12.364Z,58.25
2018-05-12T22:17:38.342Z,58.64
2018-05-12T22:20:04.316Z,58.52
2018-05-12T22:22:30.312Z,58.42
2018-05-12T22:24:56.257Z,58.33
2018-05-12T22:27:22.219Z,58.32
2018-05-12T22:29:48.203Z,58.55
2018-05-12T22:32:14.203Z,58.18
2018-05-12T22:34:40.374Z,58.35
2018-05-12T22:37:06.515Z,58.47
2018-05-12T22:39:32.476Z,58.59
2018-05-12T22:41:58.475Z,58.51
2018-05-12T22:44:24.436Z,58.20
2018-05-12T22:46:50.499Z,58.46
2018-05-12T22:49:16.481Z,58.52
2018-05-12T22:51:42.449Z,58.81
2018-05-12T22:54:08.413Z,58.57
2018-05-12T22:56:34.407Z,58.54
2018-05-12T22:59:00.476Z,58.88
2018-05-12T23:01:26.458Z,58.57
2018-05-12T23:03:52.415Z,58.67
2018-05-12T23:06:18.376Z,58.70
2018-05-12T23:08:44.468Z,58.57
2018-05-12T23:11:10.480Z,58.50
2018-05-12T23:13:40.205Z,58.60
2018-05-12T23:16:06.187Z,58.61
2018-05-12T23:18:32.246Z,58.61
2018-05-12T23:20:58.180Z,58.57
2018-05-12T23:23:24.157Z,58.85
2018-05-12T23:25:50.140Z,58.72
2018-05-12T23:28:16.097Z,58.72
2018-05-12T23:30:42.100Z,58.54
2018-05-12T23:33:08.065Z,58.58
2018-05-12T23:35:34.024Z,58.44
2018-05-12T23:38:00.013Z,58.44
2018-05-12T23:40:25.992Z,58.72
2018-05-12T23:42:51.968Z,58.92
2018-05-12T23:45:18.026Z,58.68
2018-05-12T23:47:44.084Z,58.72
2018-05-12T23:50:11.157Z,58.84
2018-05-12T23:52:37.175Z,58.60
2018-05-12T23:55:03.124Z,58.79
2018-05-12T23:57:29.098Z,58.49
2018-05-12T23:59:55.088Z,58.58
